Terminal Aerodrome Forecast
Issued by NWS

Home | Current Version | Previous Version | Text Only | Print | Product List | Glossary On
Versions: 1 2 3 4 5 6 7 8 9 10 11 12 13
292
FTUS44 KBMX 221233 AAA
TAFTCL
TAF AMD
KTCL 221233Z 2213/2312 15008KT P6SM BKN025
     FM221400 16010KT P6SM VCSH OVC015
     FM221700 19012G20KT 6SM -SHRA VCTS SCT007CB OVC012
      TEMPO 2218/2221 4SM TSRA BKN008 OVC012CB
     FM230200 21012G19KT P6SM OVC015
     FM230600 26008KT P6SM SKC=

USA.gov is the U.S. government's official web portal to all federal, state and local government web resources and services.